createdAt,value
2024-01-14T00:00:09.534Z,2.00
2024-01-14T00:02:36.769Z,1.90
2024-01-14T00:05:03.822Z,1.90
2024-01-14T00:07:30.754Z,1.90
2024-01-14T00:09:59.156Z,1.90
2024-01-14T00:12:29.305Z,2.00
2024-01-14T00:14:56.308Z,2.00
2024-01-14T00:17:23.404Z,1.90
2024-01-14T00:19:52.436Z,1.90
2024-01-14T00:22:19.533Z,1.90
2024-01-14T00:24:46.453Z,1.90
2024-01-14T00:27:14.454Z,1.90
2024-01-14T00:29:41.499Z,1.80
2024-01-14T00:32:08.763Z,1.90
2024-01-14T00:34:36.115Z,1.90
2024-01-14T00:37:03.028Z,2.00
2024-01-14T00:39:30.482Z,2.00
2024-01-14T00:41:57.703Z,1.90
2024-01-14T00:44:27.505Z,1.90
2024-01-14T00:46:54.824Z,1.90
2024-01-14T00:49:21.820Z,1.90
2024-01-14T00:51:48.984Z,1.90
2024-01-14T00:54:16.059Z,1.90
2024-01-14T00:56:43.186Z,1.90
2024-01-14T00:59:10.307Z,1.90
2024-01-14T01:01:37.352Z,1.90
2024-01-14T01:04:04.428Z,1.90
2024-01-14T01:06:31.482Z,1.90
2024-01-14T01:08:58.487Z,1.90
2024-01-14T01:11:25.476Z,1.90
2024-01-14T01:13:52.366Z,1.90
2024-01-14T01:16:19.545Z,2.00
2024-01-14T01:18:46.526Z,2.00
2024-01-14T01:21:20.651Z,1.90
2024-01-14T01:23:47.707Z,2.00
2024-01-14T01:26:14.678Z,2.00
2024-01-14T01:28:41.556Z,2.00
2024-01-14T01:31:08.996Z,1.90
2024-01-14T01:33:36.146Z,2.00
2024-01-14T01:36:03.230Z,2.00
2024-01-14T01:38:30.177Z,2.00
2024-01-14T01:40:57.060Z,2.10
2024-01-14T01:43:23.940Z,2.00
2024-01-14T01:45:51.938Z,2.00
2024-01-14T01:48:20.852Z,2.00
2024-01-14T01:50:48.271Z,1.90
2024-01-14T01:53:16.151Z,1.90
2024-01-14T01:55:43.112Z,1.90
2024-01-14T01:58:11.441Z,1.90
2024-01-14T02:00:40.597Z,1.90
2024-01-14T02:03:09.173Z,1.80
2024-01-14T02:05:40.642Z,1.80
2024-01-14T02:08:08.501Z,1.90
2024-01-14T02:10:35.543Z,1.90
2024-01-14T02:13:02.530Z,1.90
2024-01-14T02:15:29.420Z,1.90
2024-01-14T02:17:56.478Z,1.90
2024-01-14T02:20:23.545Z,1.90
2024-01-14T02:22:54.036Z,1.90
2024-01-14T02:25:21.476Z,1.90
2024-01-14T02:27:49.249Z,1.90
2024-01-14T02:30:16.582Z,1.90
2024-01-14T02:32:43.657Z,1.80
2024-01-14T02:35:10.681Z,1.80
2024-01-14T02:37:43.940Z,1.70
2024-01-14T02:40:14.692Z,1.80
2024-01-14T02:42:41.771Z,1.80
2024-01-14T02:45:09.115Z,1.70
2024-01-14T02:47:36.323Z,1.70
2024-01-14T02:50:03.692Z,1.70
2024-01-14T02:52:30.668Z,1.70
2024-01-14T02:54:57.576Z,1.60
2024-01-14T02:57:25.208Z,1.70
2024-01-14T02:59:52.252Z,1.70
2024-01-14T03:02:19.208Z,1.80
2024-01-14T03:04:46.063Z,1.70
2024-01-14T03:07:12.910Z,1.70
2024-01-14T03:09:39.878Z,1.70
2024-01-14T03:12:07.105Z,1.70
2024-01-14T03:14:35.965Z,1.70
2024-01-14T03:17:03.369Z,1.70
2024-01-14T03:19:30.565Z,1.70
2024-01-14T03:21:57.783Z,1.80
2024-01-14T03:24:24.944Z,1.80
2024-01-14T03:26:51.923Z,1.80
2024-01-14T03:29:18.916Z,1.80
2024-01-14T03:31:45.841Z,1.80
2024-01-14T03:34:13.004Z,1.80
2024-01-14T03:36:40.107Z,1.80
2024-01-14T03:39:08.262Z,1.80
2024-01-14T03:41:35.548Z,1.80
2024-01-14T03:44:02.638Z,1.80
2024-01-14T03:46:29.875Z,1.80
2024-01-14T03:48:56.925Z,1.80
2024-01-14T03:51:24.038Z,1.80
2024-01-14T03:53:51.089Z,1.70
2024-01-14T03:56:18.050Z,1.70
2024-01-14T03:58:45.038Z,1.70
2024-01-14T04:01:21.212Z,1.70
2024-01-14T04:03:49.014Z,1.70
2024-01-14T04:06:19.666Z,1.70
2024-01-14T04:08:46.691Z,1.70
2024-01-14T04:11:13.753Z,1.70
2024-01-14T04:13:40.680Z,1.80
2024-01-14T04:16:10.906Z,1.70
2024-01-14T04:18:37.840Z,1.70
2024-01-14T04:21:05.122Z,1.70
2024-01-14T04:23:32.110Z,1.70
2024-01-14T04:26:00.033Z,1.70
2024-01-14T04:28:26.873Z,1.80
2024-01-14T04:30:55.093Z,1.70
2024-01-14T04:33:22.722Z,1.80
2024-01-14T04:35:49.717Z,1.80
2024-01-14T04:38:16.625Z,1.70
2024-01-14T04:40:43.553Z,1.80
2024-01-14T04:43:12.983Z,1.70
2024-01-14T04:45:40.044Z,1.70
2024-01-14T04:48:07.299Z,1.70
2024-01-14T04:50:34.447Z,1.80
2024-01-14T04:53:01.570Z,1.70
2024-01-14T04:55:28.452Z,1.70
2024-01-14T04:57:55.314Z,1.70
2024-01-14T05:00:22.249Z,1.80
2024-01-14T05:02:49.306Z,1.80
2024-01-14T05:05:16.441Z,1.80
2024-01-14T05:07:43.406Z,1.80
2024-01-14T05:10:10.677Z,1.80
2024-01-14T05:12:37.624Z,1.80
2024-01-14T05:15:05.312Z,1.80
2024-01-14T05:17:32.473Z,1.70
2024-01-14T05:19:59.574Z,1.70
2024-01-14T05:22:27.241Z,1.80
2024-01-14T05:24:54.188Z,1.70
2024-01-14T05:27:21.094Z,1.70
2024-01-14T05:29:48.024Z,1.70
2024-01-14T05:32:16.340Z,1.70
2024-01-14T05:34:44.159Z,1.70
2024-01-14T05:37:11.427Z,1.70
2024-01-14T05:39:38.386Z,1.70
2024-01-14T05:42:05.884Z,1.70
2024-01-14T05:44:33.459Z,1.80
2024-01-14T05:47:00.588Z,1.70
2024-01-14T05:49:27.572Z,1.70
2024-01-14T05:51:54.617Z,1.60
2024-01-14T05:54:21.746Z,1.70
2024-01-14T05:56:48.898Z,1.70
2024-01-14T05:59:15.921Z,1.70
2024-01-14T06:01:42.782Z,1.70
2024-01-14T06:04:09.702Z,1.70
2024-01-14T06:06:36.769Z,1.70
2024-01-14T06:09:03.936Z,1.70
2024-01-14T06:11:30.902Z,1.70
2024-01-14T06:13:57.805Z,1.70
2024-01-14T06:16:26.406Z,1.70
2024-01-14T06:18:53.554Z,1.70
2024-01-14T06:21:20.868Z,1.70
2024-01-14T06:23:47.850Z,1.70
2024-01-14T06:26:18.780Z,1.70
2024-01-14T06:28:49.658Z,1.70
2024-01-14T06:31:18.328Z,1.70
2024-01-14T06:33:45.556Z,1.70
2024-01-14T06:36:12.909Z,1.60
2024-01-14T06:38:40.589Z,1.60
2024-01-14T06:41:10.728Z,1.70
2024-01-14T06:43:38.559Z,1.70
2024-01-14T06:46:05.837Z,1.70
2024-01-14T06:48:32.781Z,1.70
2024-01-14T06:50:59.822Z,1.60
2024-01-14T06:53:26.708Z,1.60
2024-01-14T06:55:53.641Z,1.70
2024-01-14T06:58:20.542Z,1.70
2024-01-14T07:00:47.537Z,1.80
2024-01-14T07:03:15.568Z,1.70
2024-01-14T07:05:42.623Z,1.70
2024-01-14T07:08:09.583Z,1.70
2024-01-14T07:10:36.584Z,1.70
2024-01-14T07:13:03.586Z,1.70
2024-01-14T07:15:30.509Z,1.70
2024-01-14T07:18:00.281Z,1.70
2024-01-14T07:20:28.136Z,1.70
2024-01-14T07:22:55.316Z,1.70
2024-01-14T07:25:42.186Z,1.70
2024-01-14T07:28:09.071Z,1.70
2024-01-14T07:30:36.035Z,1.60
2024-01-14T07:33:03.005Z,1.60
2024-01-14T07:35:29.986Z,1.70
2024-01-14T07:37:56.900Z,1.70
2024-01-14T07:40:23.801Z,1.70
2024-01-14T07:42:50.646Z,1.70
2024-01-14T07:45:17.616Z,1.60
2024-01-14T07:47:44.544Z,1.70
2024-01-14T07:50:11.645Z,1.60
2024-01-14T07:52:38.518Z,1.70
2024-01-14T07:55:05.644Z,1.60
2024-01-14T07:57:32.520Z,1.60
2024-01-14T07:59:59.487Z,1.70
2024-01-14T08:02:26.681Z,1.70
2024-01-14T08:04:54.166Z,1.60
2024-01-14T08:07:21.181Z,1.70
2024-01-14T08:09:48.066Z,1.60
2024-01-14T08:12:15.019Z,1.70
2024-01-14T08:14:42.009Z,1.60
2024-01-14T08:17:08.986Z,1.60
2024-01-14T08:19:35.956Z,1.70
2024-01-14T08:22:03.471Z,1.70
2024-01-14T08:24:30.399Z,1.70
2024-01-14T08:26:57.407Z,1.70
2024-01-14T08:29:25.831Z,1.70
2024-01-14T08:31:53.801Z,1.70
2024-01-14T08:34:21.220Z,1.70
2024-01-14T08:36:48.349Z,1.80
2024-01-14T08:39:15.457Z,1.70
2024-01-14T08:41:42.435Z,1.70
2024-01-14T08:44:12.634Z,1.70
2024-01-14T08:46:43.371Z,1.70
2024-01-14T08:49:10.520Z,1.70
2024-01-14T08:51:40.333Z,1.70
2024-01-14T08:54:07.842Z,1.80
2024-01-14T08:56:34.828Z,1.80
2024-01-14T08:59:01.741Z,1.80
2024-01-14T09:01:29.107Z,1.70
2024-01-14T09:03:56.563Z,1.70
2024-01-14T09:06:23.983Z,1.70
2024-01-14T09:08:51.030Z,1.70
2024-01-14T09:11:18.802Z,1.70
2024-01-14T09:13:47.089Z,1.70
2024-01-14T09:16:14.310Z,1.70
2024-01-14T09:18:41.394Z,1.80
2024-01-14T09:23:36.208Z,1.80
2024-01-14T09:26:03.132Z,1.70
2024-01-14T09:28:30.051Z,1.80
2024-01-14T09:30:57.138Z,1.80
2024-01-14T09:33:24.408Z,1.80
2024-01-14T09:35:51.481Z,1.80
2024-01-14T09:38:18.527Z,1.70
2024-01-14T09:40:45.846Z,1.80
2024-01-14T09:43:14.155Z,1.80
2024-01-14T09:48:17.435Z,1.80
2024-01-14T09:50:45.175Z,1.80
2024-01-14T09:53:15.765Z,1.90
2024-01-14T09:55:42.813Z,1.90
2024-01-14T09:58:13.893Z,2.00
2024-01-14T10:00:42.283Z,1.90
2024-01-14T10:03:10.101Z,1.90
2024-01-14T10:05:38.683Z,1.90
2024-01-14T10:08:06.227Z,2.00
2024-01-14T10:10:35.171Z,2.00
2024-01-14T10:13:03.979Z,1.90
2024-01-14T10:15:42.377Z,1.90
2024-01-14T10:18:15.464Z,2.00
2024-01-14T10:20:42.479Z,2.00
2024-01-14T10:23:09.671Z,2.00
2024-01-14T10:25:36.521Z,2.00
2024-01-14T10:28:06.609Z,2.00
2024-01-14T10:30:33.825Z,2.10
2024-01-14T10:33:19.024Z,2.00
2024-01-14T10:35:47.928Z,2.10
2024-01-14T10:38:14.931Z,2.10
2024-01-14T10:40:41.841Z,2.10
2024-01-14T10:43:09.981Z,2.10
2024-01-14T10:48:06.302Z,2.20
2024-01-14T10:50:42.369Z,2.10
2024-01-14T10:53:27.645Z,2.20
2024-01-14T10:56:05.683Z,2.10
2024-01-14T10:58:37.256Z,2.10
2024-01-14T11:01:08.307Z,2.10
2024-01-14T11:03:36.046Z,2.10
2024-01-14T11:06:04.932Z,2.10
2024-01-14T11:08:33.049Z,2.10
2024-01-14T11:11:01.094Z,2.10
2024-01-14T11:13:46.497Z,2.10
2024-01-14T11:16:43.108Z,2.10
2024-01-14T11:19:25.966Z,2.10
2024-01-14T11:22:27.018Z,2.10
2024-01-14T11:25:02.195Z,2.20
2024-01-14T11:27:29.181Z,2.20
2024-01-14T11:29:56.094Z,2.20
2024-01-14T11:32:25.377Z,2.30
2024-01-14T11:34:53.784Z,2.30
2024-01-14T11:37:43.439Z,2.30
2024-01-14T11:40:12.786Z,2.30
2024-01-14T11:42:51.936Z,2.30
2024-01-14T11:45:25.347Z,2.10
2024-01-14T11:47:54.195Z,2.10
2024-01-14T11:50:22.100Z,2.00
2024-01-14T11:52:50.596Z,1.90
2024-01-14T11:55:35.682Z,1.90
2024-01-14T11:58:11.136Z,1.90
2024-01-14T12:00:42.109Z,2.00
2024-01-14T12:03:12.420Z,2.10
2024-01-14T12:05:41.797Z,2.10
2024-01-14T12:08:10.180Z,2.00
2024-01-14T12:10:37.406Z,2.00
2024-01-14T12:13:08.229Z,2.00
2024-01-14T12:15:38.225Z,2.00
2024-01-14T12:18:07.007Z,2.10
2024-01-14T12:20:34.741Z,2.00
2024-01-14T12:23:06.355Z,2.00
2024-01-14T12:25:34.770Z,2.10
2024-01-14T12:28:01.705Z,2.00
2024-01-14T12:30:38.501Z,1.90
2024-01-14T12:33:08.810Z,1.90
2024-01-14T12:35:39.882Z,1.80
2024-01-14T12:38:09.710Z,1.80
2024-01-14T12:40:37.956Z,1.80
2024-01-14T12:43:08.845Z,1.80
2024-01-14T12:48:08.948Z,1.80
2024-01-14T12:50:40.365Z,1.70
2024-01-14T12:53:12.074Z,1.70
2024-01-14T12:55:39.336Z,1.70
2024-01-14T12:58:06.564Z,1.70
2024-01-14T13:00:34.600Z,1.70
2024-01-14T13:03:02.125Z,1.70
2024-01-14T13:05:29.198Z,1.70
2024-01-14T13:07:56.144Z,1.70
2024-01-14T13:10:23.049Z,1.80
2024-01-14T13:12:50.169Z,1.80
2024-01-14T13:15:17.434Z,1.80
2024-01-14T13:17:44.653Z,1.90
2024-01-14T13:20:12.247Z,1.90
2024-01-14T13:22:39.399Z,1.90
2024-01-14T13:25:08.094Z,2.00
2024-01-14T13:27:35.932Z,1.90
2024-01-14T13:30:04.639Z,1.90
2024-01-14T13:32:38.294Z,2.00
2024-01-14T13:35:11.089Z,2.00
2024-01-14T13:37:39.240Z,2.00
2024-01-14T13:40:06.874Z,1.90
2024-01-14T13:42:37.703Z,1.90
2024-01-14T13:45:07.269Z,2.10
2024-01-14T13:47:34.670Z,1.90
2024-01-14T13:50:01.858Z,1.90
2024-01-14T13:52:28.899Z,2.00
2024-01-14T13:54:56.002Z,1.90
2024-01-14T13:57:23.492Z,1.90
2024-01-14T13:59:50.648Z,1.90
2024-01-14T14:02:20.398Z,1.90
2024-01-14T14:04:47.773Z,1.90
2024-01-14T14:07:15.063Z,1.90
2024-01-14T14:09:42.073Z,1.90
2024-01-14T14:12:11.486Z,1.90
2024-01-14T14:14:38.509Z,1.90
2024-01-14T14:17:06.417Z,1.90
2024-01-14T14:19:33.568Z,1.80
2024-01-14T14:22:01.690Z,1.70
2024-01-14T14:24:35.310Z,1.70
2024-01-14T14:27:02.971Z,1.70
2024-01-14T14:29:30.158Z,1.70
2024-01-14T14:31:57.713Z,1.70
2024-01-14T14:34:25.825Z,1.70
2024-01-14T14:36:53.541Z,1.80
2024-01-14T14:39:20.827Z,1.70
2024-01-14T14:41:48.229Z,1.60
2024-01-14T14:44:15.369Z,1.70
2024-01-14T14:46:42.388Z,1.70
2024-01-14T14:49:09.775Z,1.70
2024-01-14T14:51:41.035Z,1.70
2024-01-14T14:54:10.277Z,1.70
2024-01-14T14:56:37.752Z,1.70
2024-01-14T14:59:05.211Z,1.60
2024-01-14T15:01:38.147Z,1.60
2024-01-14T15:04:11.594Z,1.60
2024-01-14T15:06:40.134Z,1.60
2024-01-14T15:09:09.125Z,1.60
2024-01-14T15:11:39.565Z,1.60
2024-01-14T15:14:11.804Z,1.60
2024-01-14T15:16:40.690Z,1.60
2024-01-14T15:19:07.768Z,1.50
2024-01-14T15:21:35.000Z,1.50
2024-01-14T15:24:02.137Z,1.50
2024-01-14T15:26:29.662Z,1.60
2024-01-14T15:28:56.681Z,1.60
2024-01-14T15:31:24.131Z,1.60
2024-01-14T15:33:52.084Z,1.70
2024-01-14T15:36:20.807Z,1.60
2024-01-14T15:38:48.399Z,1.60
2024-01-14T15:41:15.830Z,1.60
2024-01-14T15:43:43.055Z,1.60
2024-01-14T15:46:10.009Z,1.60
2024-01-14T15:48:40.506Z,1.60
2024-01-14T15:51:11.517Z,1.60
2024-01-14T15:53:41.348Z,1.60
2024-01-14T15:56:08.589Z,1.50
2024-01-14T15:58:40.445Z,1.50
2024-01-14T16:01:14.208Z,1.50
2024-01-14T16:03:44.686Z,1.50
2024-01-14T16:06:13.731Z,1.50
2024-01-14T16:08:40.928Z,1.50
2024-01-14T16:11:10.064Z,1.50
2024-01-14T16:13:37.341Z,1.50
2024-01-14T16:16:05.964Z,1.40
2024-01-14T16:18:33.780Z,1.40
2024-01-14T16:21:05.270Z,1.40
2024-01-14T16:23:38.629Z,1.40
2024-01-14T16:26:06.828Z,1.40
2024-01-14T16:28:33.811Z,1.40
2024-01-14T16:31:10.069Z,1.40
2024-01-14T16:33:42.586Z,1.40
2024-01-14T16:36:10.473Z,1.40
2024-01-14T16:38:37.542Z,1.40
2024-01-14T16:41:06.294Z,1.50
2024-01-14T16:43:35.369Z,1.50
2024-01-14T16:46:03.705Z,1.50
2024-01-14T16:48:34.740Z,1.40
2024-01-14T16:51:09.502Z,1.40
2024-01-14T16:53:40.223Z,1.50
2024-01-14T16:56:08.391Z,1.40
2024-01-14T16:58:35.931Z,1.50
2024-01-14T17:01:13.949Z,1.50
2024-01-14T17:03:45.676Z,1.50
2024-01-14T17:06:15.658Z,1.60
2024-01-14T17:08:48.038Z,1.50
2024-01-14T17:11:16.392Z,1.50
2024-01-14T17:13:43.672Z,1.50
2024-01-14T17:16:24.319Z,1.50
2024-01-14T17:21:20.322Z,1.50
2024-01-14T17:23:48.181Z,1.40
2024-01-14T17:26:16.113Z,1.50
2024-01-14T17:28:43.755Z,1.50
2024-01-14T17:31:13.030Z,1.60
2024-01-14T17:33:42.124Z,1.60
2024-01-14T17:36:13.376Z,1.60
2024-01-14T17:38:40.973Z,1.50
2024-01-14T17:41:11.031Z,1.50
2024-01-14T17:43:38.889Z,1.50
2024-01-14T17:46:08.566Z,1.50
2024-01-14T17:48:40.016Z,1.50
2024-01-14T17:51:09.601Z,1.50
2024-01-14T17:53:37.472Z,1.50
2024-01-14T17:56:05.281Z,1.50
2024-01-14T17:58:32.307Z,1.40
2024-01-14T18:01:00.510Z,1.50
2024-01-14T18:03:27.753Z,1.50
2024-01-14T18:05:55.028Z,1.50
2024-01-14T18:08:22.060Z,1.50
2024-01-14T18:10:52.061Z,1.40
2024-01-14T18:13:19.256Z,1.40
2024-01-14T18:15:47.170Z,1.40
2024-01-14T18:18:16.674Z,1.40
2024-01-14T18:20:44.531Z,1.30
2024-01-14T18:23:13.820Z,1.30
2024-01-14T18:25:43.103Z,1.30
2024-01-14T18:28:10.398Z,1.30
2024-01-14T18:30:37.560Z,1.30
2024-01-14T18:33:10.985Z,1.20
2024-01-14T18:35:45.598Z,1.20
2024-01-14T18:38:17.192Z,1.20
2024-01-14T18:40:44.480Z,1.20
2024-01-14T18:43:12.139Z,1.20
2024-01-14T18:45:42.451Z,1.20
2024-01-14T18:48:09.863Z,1.10
2024-01-14T18:50:37.387Z,1.20
2024-01-14T18:53:06.128Z,1.10
2024-01-14T18:55:36.198Z,1.10
2024-01-14T18:58:04.116Z,1.10
2024-01-14T19:00:31.551Z,1.00
2024-01-14T19:02:58.609Z,1.00
2024-01-14T19:05:26.687Z,1.00
2024-01-14T19:07:53.931Z,1.00
2024-01-14T19:10:20.769Z,1.10
2024-01-14T19:12:47.993Z,1.10
2024-01-14T19:15:14.955Z,1.20
2024-01-14T19:17:41.933Z,1.10
2024-01-14T19:20:09.641Z,1.10
2024-01-14T19:22:36.639Z,1.10
2024-01-14T19:25:06.107Z,1.10
2024-01-14T19:27:34.690Z,1.10
2024-01-14T19:30:01.940Z,1.00
2024-01-14T19:32:29.192Z,1.10
2024-01-14T19:34:56.614Z,1.10
2024-01-14T19:37:23.668Z,1.10
2024-01-14T19:39:52.110Z,1.10
2024-01-14T19:42:19.211Z,1.10
2024-01-14T19:44:46.339Z,1.00
2024-01-14T19:47:13.997Z,1.10
2024-01-14T19:49:41.395Z,1.10
2024-01-14T19:52:08.411Z,1.10
2024-01-14T19:54:37.359Z,1.00
2024-01-14T19:57:05.826Z,1.00
2024-01-14T19:59:33.376Z,1.10
2024-01-14T20:02:00.534Z,1.00
2024-01-14T20:04:28.388Z,1.00
2024-01-14T20:06:55.705Z,1.10
2024-01-14T20:09:24.581Z,1.10
2024-01-14T20:11:55.857Z,1.10
2024-01-14T20:14:23.085Z,1.10
2024-01-14T20:16:52.603Z,1.10
2024-01-14T20:19:21.060Z,1.00
2024-01-14T20:21:49.574Z,1.00
2024-01-14T20:24:16.663Z,1.00
2024-01-14T20:26:43.958Z,1.00
2024-01-14T20:29:10.948Z,1.00
2024-01-14T20:31:38.580Z,1.10
2024-01-14T20:34:06.328Z,1.10
2024-01-14T20:36:33.592Z,1.10
2024-01-14T20:39:00.750Z,1.10
2024-01-14T20:41:27.779Z,1.10
2024-01-14T20:43:54.715Z,1.00
2024-01-14T20:46:21.608Z,1.00
2024-01-14T20:48:48.975Z,1.10
2024-01-14T20:51:16.483Z,1.00
2024-01-14T20:53:43.626Z,1.00
2024-01-14T20:56:10.727Z,1.00
2024-01-14T20:58:37.588Z,1.00
2024-01-14T21:01:05.804Z,1.10
2024-01-14T21:03:33.112Z,1.10
2024-01-14T21:06:00.607Z,1.10
2024-01-14T21:08:27.774Z,1.00
2024-01-14T21:10:54.966Z,1.10
2024-01-14T21:13:21.950Z,1.00
2024-01-14T21:15:50.301Z,1.00
2024-01-14T21:18:18.778Z,1.10
2024-01-14T21:20:45.875Z,1.00
2024-01-14T21:23:12.770Z,1.00
2024-01-14T21:25:39.640Z,1.00
2024-01-14T21:28:09.323Z,1.00
2024-01-14T21:30:36.655Z,1.00
2024-01-14T21:33:04.599Z,1.00
2024-01-14T21:35:32.015Z,1.10
2024-01-14T21:37:58.888Z,1.00
2024-01-14T21:40:26.533Z,1.00
2024-01-14T21:42:53.656Z,1.00
2024-01-14T21:45:20.780Z,1.10
2024-01-14T21:47:47.772Z,1.10
2024-01-14T21:50:14.809Z,1.10
2024-01-14T21:52:41.870Z,1.10
2024-01-14T21:55:11.444Z,1.10
2024-01-14T21:57:41.717Z,1.10
2024-01-14T22:00:12.439Z,1.00
2024-01-14T22:02:39.527Z,1.10
2024-01-14T22:05:06.835Z,1.10
2024-01-14T22:07:34.059Z,1.00
2024-01-14T22:10:01.225Z,1.10
2024-01-14T22:12:28.366Z,1.10
2024-01-14T22:14:55.351Z,1.10
2024-01-14T22:17:22.386Z,1.10
2024-01-14T22:19:49.503Z,1.10
2024-01-14T22:22:16.995Z,1.10
2024-01-14T22:24:45.036Z,1.10
2024-01-14T22:27:12.342Z,1.20
2024-01-14T22:29:39.310Z,1.10
2024-01-14T22:32:07.467Z,1.20
2024-01-14T22:34:35.217Z,1.10
2024-01-14T22:37:02.408Z,1.20
2024-01-14T22:39:30.683Z,1.20
2024-01-14T22:41:57.714Z,1.20
2024-01-14T22:44:24.766Z,1.20
2024-01-14T22:46:51.956Z,1.20
2024-01-14T22:49:19.176Z,1.20
2024-01-14T22:51:46.847Z,1.20
2024-01-14T22:54:14.520Z,1.20
2024-01-14T22:56:42.512Z,1.20
2024-01-14T22:59:10.048Z,1.30
2024-01-14T23:01:37.529Z,1.30
2024-01-14T23:04:05.221Z,1.30
2024-01-14T23:06:32.827Z,1.30
2024-01-14T23:09:00.412Z,1.30
2024-01-14T23:11:27.298Z,1.30
2024-01-14T23:13:54.210Z,1.30
2024-01-14T23:16:21.845Z,1.40
2024-01-14T23:18:49.292Z,1.40
2024-01-14T23:21:16.529Z,1.40
2024-01-14T23:23:43.814Z,1.40
2024-01-14T23:26:10.710Z,1.40
2024-01-14T23:28:37.644Z,1.40
2024-01-14T23:31:04.822Z,1.30
2024-01-14T23:33:32.057Z,1.40
2024-01-14T23:35:59.012Z,1.40
2024-01-14T23:38:25.861Z,1.40
2024-01-14T23:40:53.211Z,1.40
2024-01-14T23:43:20.158Z,1.40
2024-01-14T23:45:47.224Z,1.30
2024-01-14T23:48:15.177Z,1.20
2024-01-14T23:50:42.221Z,1.20
2024-01-14T23:53:09.336Z,1.20
2024-01-14T23:55:36.932Z,1.30
2024-01-14T23:58:04.205Z,1.10
